sensor_id;sensor_type;location;lat;lon;timestamp;P1;durP1;ratioP1;P2;durP2;ratioP2
44328;SDS011;30039;51.462;6.892;2023-04-28T00:00:02;7.55;;;4.75;;
44328;SDS011;30039;51.462;6.892;2023-04-28T00:02:49;11.55;;;5.30;;
44328;SDS011;30039;51.462;6.892;2023-04-28T00:05:34;12.93;;;5.55;;
44328;SDS011;30039;51.462;6.892;2023-04-28T00:08:20;11.35;;;4.90;;
44328;SDS011;30039;51.462;6.892;2023-04-28T00:11:08;7.90;;;5.05;;
44328;SDS011;30039;51.462;6.892;2023-04-28T00:13:54;8.70;;;5.78;;
44328;SDS011;30039;51.462;6.892;2023-04-28T00:16:39;10.50;;;5.38;;
44328;SDS011;30039;51.462;6.892;2023-04-28T00:19:25;9.80;;;5.63;;
44328;SDS011;30039;51.462;6.892;2023-04-28T00:22:11;8.40;;;5.80;;
44328;SDS011;30039;51.462;6.892;2023-04-28T00:24:57;11.20;;;5.80;;
44328;SDS011;30039;51.462;6.892;2023-04-28T00:27:42;10.07;;;6.35;;
44328;SDS011;30039;51.462;6.892;2023-04-28T00:30:31;11.23;;;5.78;;
44328;SDS011;30039;51.462;6.892;2023-04-28T00:33:16;9.93;;;6.40;;
44328;SDS011;30039;51.462;6.892;2023-04-28T00:36:02;12.63;;;5.88;;
44328;SDS011;30039;51.462;6.892;2023-04-28T00:38:48;10.80;;;6.18;;
44328;SDS011;30039;51.462;6.892;2023-04-28T00:41:33;9.73;;;5.53;;
44328;SDS011;30039;51.462;6.892;2023-04-28T00:44:19;8.95;;;5.60;;
44328;SDS011;30039;51.462;6.892;2023-04-28T00:47:05;15.13;;;6.30;;
44328;SDS011;30039;51.462;6.892;2023-04-28T00:49:51;15.23;;;6.22;;
44328;SDS011;30039;51.462;6.892;2023-04-28T00:52:37;10.20;;;6.05;;
44328;SDS011;30039;51.462;6.892;2023-04-28T00:55:23;9.73;;;6.00;;
44328;SDS011;30039;51.462;6.892;2023-04-28T00:58:10;9.45;;;6.20;;
44328;SDS011;30039;51.462;6.892;2023-04-28T01:01:06;8.68;;;6.10;;
44328;SDS011;30039;51.462;6.892;2023-04-28T01:03:52;9.60;;;5.85;;
44328;SDS011;30039;51.462;6.892;2023-04-28T01:06:39;12.48;;;6.43;;
44328;SDS011;30039;51.462;6.892;2023-04-28T01:09:26;12.07;;;6.60;;
44328;SDS011;30039;51.462;6.892;2023-04-28T01:12:11;9.60;;;6.03;;
44328;SDS011;30039;51.462;6.892;2023-04-28T01:14:57;12.88;;;6.10;;
44328;SDS011;30039;51.462;6.892;2023-04-28T01:17:44;12.00;;;6.70;;
44328;SDS011;30039;51.462;6.892;2023-04-28T01:20:29;13.18;;;6.30;;
44328;SDS011;30039;51.462;6.892;2023-04-28T01:23:15;12.45;;;6.22;;
44328;SDS011;30039;51.462;6.892;2023-04-28T01:26:01;9.70;;;6.15;;
44328;SDS011;30039;51.462;6.892;2023-04-28T01:28:48;12.77;;;7.20;;
44328;SDS011;30039;51.462;6.892;2023-04-28T01:31:33;11.60;;;7.10;;
44328;SDS011;30039;51.462;6.892;2023-04-28T01:34:19;13.32;;;6.40;;
44328;SDS011;30039;51.462;6.892;2023-04-28T01:37:05;10.80;;;6.80;;
44328;SDS011;30039;51.462;6.892;2023-04-28T01:39:51;10.52;;;6.75;;
44328;SDS011;30039;51.462;6.892;2023-04-28T01:42:37;14.35;;;6.47;;
44328;SDS011;30039;51.462;6.892;2023-04-28T01:45:23;10.05;;;6.20;;
44328;SDS011;30039;51.462;6.892;2023-04-28T01:48:08;13.10;;;6.55;;
44328;SDS011;30039;51.462;6.892;2023-04-28T01:50:54;11.60;;;6.68;;
44328;SDS011;30039;51.462;6.892;2023-04-28T01:53:40;11.13;;;6.75;;
44328;SDS011;30039;51.462;6.892;2023-04-28T01:56:25;11.80;;;6.90;;
44328;SDS011;30039;51.462;6.892;2023-04-28T01:59:11;12.88;;;7.25;;
44328;SDS011;30039;51.462;6.892;2023-04-28T02:01:57;13.50;;;7.43;;
44328;SDS011;30039;51.462;6.892;2023-04-28T02:04:42;12.40;;;6.95;;
44328;SDS011;30039;51.462;6.892;2023-04-28T02:07:28;14.73;;;7.45;;
44328;SDS011;30039;51.462;6.892;2023-04-28T02:10:14;12.85;;;6.88;;
44328;SDS011;30039;51.462;6.892;2023-04-28T02:12:59;10.57;;;6.72;;
44328;SDS011;30039;51.462;6.892;2023-04-28T02:15:45;11.88;;;7.47;;
44328;SDS011;30039;51.462;6.892;2023-04-28T02:18:31;13.30;;;7.22;;
44328;SDS011;30039;51.462;6.892;2023-04-28T02:21:16;11.05;;;6.45;;
44328;SDS011;30039;51.462;6.892;2023-04-28T02:24:02;12.30;;;7.15;;
44328;SDS011;30039;51.462;6.892;2023-04-28T02:26:48;14.07;;;7.55;;
44328;SDS011;30039;51.462;6.892;2023-04-28T02:29:34;13.95;;;7.85;;
44328;SDS011;30039;51.462;6.892;2023-04-28T02:32:19;12.80;;;7.35;;
44328;SDS011;30039;51.462;6.892;2023-04-28T02:35:05;13.18;;;7.35;;
44328;SDS011;30039;51.462;6.892;2023-04-28T02:37:51;11.02;;;7.28;;
44328;SDS011;30039;51.462;6.892;2023-04-28T02:40:37;13.90;;;7.75;;
44328;SDS011;30039;51.462;6.892;2023-04-28T02:43:22;13.48;;;7.15;;
44328;SDS011;30039;51.462;6.892;2023-04-28T02:46:08;12.48;;;7.63;;
44328;SDS011;30039;51.462;6.892;2023-04-28T02:48:53;14.52;;;7.78;;
44328;SDS011;30039;51.462;6.892;2023-04-28T02:51:39;16.38;;;8.55;;
44328;SDS011;30039;51.462;6.892;2023-04-28T02:54:25;16.50;;;8.35;;
44328;SDS011;30039;51.462;6.892;2023-04-28T02:57:14;12.32;;;7.70;;
44328;SDS011;30039;51.462;6.892;2023-04-28T03:00:00;14.77;;;8.50;;
44328;SDS011;30039;51.462;6.892;2023-04-28T03:02:46;12.25;;;7.90;;
44328;SDS011;30039;51.462;6.892;2023-04-28T03:05:33;12.80;;;8.15;;
44328;SDS011;30039;51.462;6.892;2023-04-28T03:08:18;14.25;;;7.80;;
44328;SDS011;30039;51.462;6.892;2023-04-28T03:11:05;13.75;;;8.30;;
44328;SDS011;30039;51.462;6.892;2023-04-28T03:13:51;14.60;;;8.02;;
44328;SDS011;30039;51.462;6.892;2023-04-28T03:16:36;13.57;;;8.35;;
44328;SDS011;30039;51.462;6.892;2023-04-28T03:19:22;12.93;;;8.23;;
44328;SDS011;30039;51.462;6.892;2023-04-28T03:22:08;13.32;;;8.15;;
44328;SDS011;30039;51.462;6.892;2023-04-28T03:24:54;13.15;;;8.70;;
44328;SDS011;30039;51.462;6.892;2023-04-28T03:27:39;17.92;;;9.25;;
44328;SDS011;30039;51.462;6.892;2023-04-28T03:30:25;15.27;;;8.02;;
44328;SDS011;30039;51.462;6.892;2023-04-28T03:33:11;18.13;;;8.93;;
44328;SDS011;30039;51.462;6.892;2023-04-28T03:35:56;13.32;;;8.55;;
44328;SDS011;30039;51.462;6.892;2023-04-28T03:38:42;18.20;;;8.95;;
44328;SDS011;30039;51.462;6.892;2023-04-28T03:41:28;17.15;;;9.20;;
44328;SDS011;30039;51.462;6.892;2023-04-28T03:44:13;16.35;;;8.50;;
44328;SDS011;30039;51.462;6.892;2023-04-28T03:46:59;14.02;;;8.82;;
44328;SDS011;30039;51.462;6.892;2023-04-28T03:49:45;12.20;;;8.63;;
44328;SDS011;30039;51.462;6.892;2023-04-28T03:52:31;14.30;;;8.73;;
44328;SDS011;30039;51.462;6.892;2023-04-28T03:55:17;16.50;;;9.07;;
44328;SDS011;30039;51.462;6.892;2023-04-28T03:58:02;13.65;;;7.70;;
44328;SDS011;30039;51.462;6.892;2023-04-28T04:00:48;13.38;;;7.45;;
44328;SDS011;30039;51.462;6.892;2023-04-28T04:03:34;11.27;;;7.15;;
44328;SDS011;30039;51.462;6.892;2023-04-28T04:06:20;10.32;;;7.05;;
44328;SDS011;30039;51.462;6.892;2023-04-28T04:09:06;12.00;;;6.60;;
44328;SDS011;30039;51.462;6.892;2023-04-28T04:11:51;10.38;;;5.85;;
44328;SDS011;30039;51.462;6.892;2023-04-28T04:14:37;10.65;;;5.75;;
44328;SDS011;30039;51.462;6.892;2023-04-28T04:17:23;12.00;;;6.18;;
44328;SDS011;30039;51.462;6.892;2023-04-28T04:20:09;8.15;;;5.93;;
44328;SDS011;30039;51.462;6.892;2023-04-28T04:22:54;8.10;;;5.03;;
44328;SDS011;30039;51.462;6.892;2023-04-28T04:25:40;11.43;;;6.22;;
44328;SDS011;30039;51.462;6.892;2023-04-28T04:28:26;11.75;;;5.75;;
44328;SDS011;30039;51.462;6.892;2023-04-28T04:31:11;9.43;;;6.15;;
44328;SDS011;30039;51.462;6.892;2023-04-28T04:33:57;9.75;;;5.55;;
44328;SDS011;30039;51.462;6.892;2023-04-28T04:36:43;9.48;;;5.63;;
44328;SDS011;30039;51.462;6.892;2023-04-28T04:39:28;9.85;;;5.45;;
44328;SDS011;30039;51.462;6.892;2023-04-28T04:42:15;8.02;;;5.85;;
44328;SDS011;30039;51.462;6.892;2023-04-28T04:45:00;7.57;;;5.43;;
44328;SDS011;30039;51.462;6.892;2023-04-28T04:47:46;8.38;;;5.53;;
44328;SDS011;30039;51.462;6.892;2023-04-28T04:50:32;15.40;;;6.22;;
44328;SDS011;30039;51.462;6.892;2023-04-28T04:53:18;11.77;;;5.32;;
44328;SDS011;30039;51.462;6.892;2023-04-28T04:56:04;9.75;;;6.00;;
44328;SDS011;30039;51.462;6.892;2023-04-28T04:58:51;8.88;;;5.40;;
44328;SDS011;30039;51.462;6.892;2023-04-28T05:01:37;10.75;;;5.85;;
44328;SDS011;30039;51.462;6.892;2023-04-28T05:04:22;11.40;;;5.95;;
44328;SDS011;30039;51.462;6.892;2023-04-28T05:07:08;8.93;;;5.40;;
44328;SDS011;30039;51.462;6.892;2023-04-28T05:09:53;11.27;;;5.15;;
44328;SDS011;30039;51.462;6.892;2023-04-28T05:12:39;9.07;;;5.97;;
44328;SDS011;30039;51.462;6.892;2023-04-28T05:15:25;10.93;;;5.93;;
44328;SDS011;30039;51.462;6.892;2023-04-28T05:18:10;9.98;;;5.93;;
44328;SDS011;30039;51.462;6.892;2023-04-28T05:20:58;8.93;;;6.32;;
44328;SDS011;30039;51.462;6.892;2023-04-28T05:23:44;8.65;;;5.50;;
44328;SDS011;30039;51.462;6.892;2023-04-28T05:26:30;9.65;;;5.80;;
44328;SDS011;30039;51.462;6.892;2023-04-28T05:29:16;11.15;;;6.57;;
44328;SDS011;30039;51.462;6.892;2023-04-28T05:32:01;9.95;;;5.68;;
44328;SDS011;30039;51.462;6.892;2023-04-28T05:34:47;9.77;;;6.43;;
44328;SDS011;30039;51.462;6.892;2023-04-28T05:37:33;9.90;;;6.22;;
44328;SDS011;30039;51.462;6.892;2023-04-28T05:40:18;9.30;;;6.40;;
44328;SDS011;30039;51.462;6.892;2023-04-28T05:43:04;9.98;;;6.05;;
44328;SDS011;30039;51.462;6.892;2023-04-28T05:45:51;10.50;;;6.47;;
44328;SDS011;30039;51.462;6.892;2023-04-28T05:48:36;13.35;;;6.18;;
44328;SDS011;30039;51.462;6.892;2023-04-28T05:51:22;8.05;;;5.82;;
44328;SDS011;30039;51.462;6.892;2023-04-28T05:54:07;10.27;;;6.15;;
44328;SDS011;30039;51.462;6.892;2023-04-28T05:56:53;10.85;;;6.10;;
44328;SDS011;30039;51.462;6.892;2023-04-28T05:59:39;9.35;;;6.15;;
44328;SDS011;30039;51.462;6.892;2023-04-28T06:02:25;9.55;;;5.75;;
44328;SDS011;30039;51.462;6.892;2023-04-28T06:05:12;12.27;;;6.13;;
44328;SDS011;30039;51.462;6.892;2023-04-28T06:07:57;11.10;;;5.47;;
44328;SDS011;30039;51.462;6.892;2023-04-28T06:10:43;11.73;;;6.43;;
44328;SDS011;30039;51.462;6.892;2023-04-28T06:13:28;9.95;;;6.25;;
44328;SDS011;30039;51.462;6.892;2023-04-28T06:16:15;9.07;;;6.38;;
44328;SDS011;30039;51.462;6.892;2023-04-28T06:19:01;10.75;;;5.72;;
44328;SDS011;30039;51.462;6.892;2023-04-28T06:21:47;8.18;;;6.32;;
44328;SDS011;30039;51.462;6.892;2023-04-28T06:24:34;9.02;;;5.75;;
44328;SDS011;30039;51.462;6.892;2023-04-28T06:27:20;7.93;;;5.70;;
44328;SDS011;30039;51.462;6.892;2023-04-28T06:30:06;8.63;;;5.68;;
44328;SDS011;30039;51.462;6.892;2023-04-28T06:32:51;7.15;;;5.13;;
44328;SDS011;30039;51.462;6.892;2023-04-28T06:35:37;8.55;;;5.25;;
44328;SDS011;30039;51.462;6.892;2023-04-28T06:38:24;8.30;;;5.75;;
44328;SDS011;30039;51.462;6.892;2023-04-28T06:41:09;10.60;;;5.43;;
44328;SDS011;30039;51.462;6.892;2023-04-28T06:43:55;10.05;;;6.18;;
44328;SDS011;30039;51.462;6.892;2023-04-28T06:46:42;7.88;;;5.50;;
44328;SDS011;30039;51.462;6.892;2023-04-28T06:49:29;8.48;;;5.10;;
44328;SDS011;30039;51.462;6.892;2023-04-28T06:52:15;9.15;;;5.05;;
44328;SDS011;30039;51.462;6.892;2023-04-28T06:55:00;8.25;;;5.10;;
44328;SDS011;30039;51.462;6.892;2023-04-28T06:57:46;7.72;;;5.25;;
44328;SDS011;30039;51.462;6.892;2023-04-28T07:00:31;7.97;;;5.53;;
44328;SDS011;30039;51.462;6.892;2023-04-28T07:03:18;8.45;;;5.78;;
44328;SDS011;30039;51.462;6.892;2023-04-28T07:06:03;10.57;;;5.95;;
44328;SDS011;30039;51.462;6.892;2023-04-28T07:08:49;9.27;;;5.47;;
44328;SDS011;30039;51.462;6.892;2023-04-28T07:11:35;10.90;;;5.43;;
44328;SDS011;30039;51.462;6.892;2023-04-28T07:14:20;8.52;;;5.47;;
44328;SDS011;30039;51.462;6.892;2023-04-28T07:17:06;10.88;;;5.60;;
44328;SDS011;30039;51.462;6.892;2023-04-28T07:19:52;8.05;;;5.45;;
44328;SDS011;30039;51.462;6.892;2023-04-28T07:22:38;9.55;;;5.10;;
44328;SDS011;30039;51.462;6.892;2023-04-28T07:25:23;9.48;;;5.00;;
44328;SDS011;30039;51.462;6.892;2023-04-28T07:28:09;8.70;;;5.13;;
44328;SDS011;30039;51.462;6.892;2023-04-28T07:30:54;9.77;;;5.07;;
44328;SDS011;30039;51.462;6.892;2023-04-28T07:33:40;9.70;;;6.25;;
44328;SDS011;30039;51.462;6.892;2023-04-28T07:36:26;7.40;;;4.40;;
44328;SDS011;30039;51.462;6.892;2023-04-28T07:39:11;6.50;;;4.40;;
44328;SDS011;30039;51.462;6.892;2023-04-28T07:41:57;8.93;;;4.40;;
44328;SDS011;30039;51.462;6.892;2023-04-28T07:44:43;6.05;;;4.03;;
44328;SDS011;30039;51.462;6.892;2023-04-28T07:47:29;7.47;;;4.60;;
44328;SDS011;30039;51.462;6.892;2023-04-28T07:50:14;8.00;;;4.35;;
44328;SDS011;30039;51.462;6.892;2023-04-28T07:53:00;7.40;;;4.40;;
44328;SDS011;30039;51.462;6.892;2023-04-28T07:55:46;8.23;;;4.07;;
44328;SDS011;30039;51.462;6.892;2023-04-28T07:58:33;6.90;;;4.28;;
44328;SDS011;30039;51.462;6.892;2023-04-28T08:01:18;6.65;;;4.28;;
44328;SDS011;30039;51.462;6.892;2023-04-28T08:04:04;6.10;;;4.28;;
44328;SDS011;30039;51.462;6.892;2023-04-28T08:06:50;9.73;;;4.45;;
44328;SDS011;30039;51.462;6.892;2023-04-28T08:09:36;7.63;;;4.22;;
44328;SDS011;30039;51.462;6.892;2023-04-28T08:12:21;5.57;;;4.18;;
44328;SDS011;30039;51.462;6.892;2023-04-28T08:15:08;6.72;;;3.85;;
44328;SDS011;30039;51.462;6.892;2023-04-28T08:17:54;5.35;;;3.72;;
44328;SDS011;30039;51.462;6.892;2023-04-28T08:20:40;5.60;;;3.50;;
44328;SDS011;30039;51.462;6.892;2023-04-28T08:23:28;9.23;;;4.18;;
44328;SDS011;30039;51.462;6.892;2023-04-28T08:26:16;6.72;;;4.07;;
44328;SDS011;30039;51.462;6.892;2023-04-28T08:29:01;10.25;;;4.18;;
44328;SDS011;30039;51.462;6.892;2023-04-28T08:31:47;5.85;;;4.03;;
44328;SDS011;30039;51.462;6.892;2023-04-28T08:34:33;5.85;;;4.07;;
44328;SDS011;30039;51.462;6.892;2023-04-28T08:37:19;6.75;;;4.15;;
44328;SDS011;30039;51.462;6.892;2023-04-28T08:40:04;6.00;;;4.00;;
44328;SDS011;30039;51.462;6.892;2023-04-28T08:42:54;9.27;;;4.72;;
44328;SDS011;30039;51.462;6.892;2023-04-28T08:45:40;6.55;;;4.35;;
44328;SDS011;30039;51.462;6.892;2023-04-28T08:48:27;6.57;;;3.90;;
44328;SDS011;30039;51.462;6.892;2023-04-28T08:51:15;6.63;;;4.40;;
44328;SDS011;30039;51.462;6.892;2023-04-28T08:54:02;7.50;;;3.60;;
44328;SDS011;30039;51.462;6.892;2023-04-28T08:56:51;6.15;;;4.18;;
44328;SDS011;30039;51.462;6.892;2023-04-28T08:59:41;9.20;;;4.60;;
44328;SDS011;30039;51.462;6.892;2023-04-28T09:02:26;8.70;;;4.15;;
44328;SDS011;30039;51.462;6.892;2023-04-28T09:05:12;6.78;;;3.67;;
44328;SDS011;30039;51.462;6.892;2023-04-28T09:08:00;8.38;;;4.20;;
44328;SDS011;30039;51.462;6.892;2023-04-28T09:10:46;5.72;;;3.83;;
44328;SDS011;30039;51.462;6.892;2023-04-28T09:13:32;6.22;;;4.00;;
44328;SDS011;30039;51.462;6.892;2023-04-28T09:16:19;7.18;;;3.97;;
44328;SDS011;30039;51.462;6.892;2023-04-28T09:19:04;6.47;;;4.32;;
44328;SDS011;30039;51.462;6.892;2023-04-28T09:21:54;6.93;;;4.35;;
44328;SDS011;30039;51.462;6.892;2023-04-28T09:24:40;7.18;;;4.00;;
44328;SDS011;30039;51.462;6.892;2023-04-28T09:27:27;7.55;;;4.43;;
44328;SDS011;30039;51.462;6.892;2023-04-28T09:30:13;6.10;;;4.38;;
44328;SDS011;30039;51.462;6.892;2023-04-28T09:33:05;7.43;;;4.55;;
44328;SDS011;30039;51.462;6.892;2023-04-28T09:35:51;6.25;;;4.03;;
44328;SDS011;30039;51.462;6.892;2023-04-28T09:38:42;9.80;;;4.85;;
44328;SDS011;30039;51.462;6.892;2023-04-28T09:42:01;7.78;;;4.80;;
44328;SDS011;30039;51.462;6.892;2023-04-28T09:44:40;8.60;;;4.45;;
44328;SDS011;30039;51.462;6.892;2023-04-28T09:47:38;6.88;;;4.40;;
44328;SDS011;30039;51.462;6.892;2023-04-28T09:50:24;8.85;;;4.68;;
44328;SDS011;30039;51.462;6.892;2023-04-28T09:53:10;9.25;;;4.82;;
44328;SDS011;30039;51.462;6.892;2023-04-28T09:55:58;11.40;;;5.55;;
44328;SDS011;30039;51.462;6.892;2023-04-28T09:58:43;13.98;;;6.07;;
44328;SDS011;30039;51.462;6.892;2023-04-28T10:01:37;9.88;;;5.25;;
44328;SDS011;30039;51.462;6.892;2023-04-28T10:04:24;11.50;;;5.63;;
44328;SDS011;30039;51.462;6.892;2023-04-28T10:07:13;7.75;;;5.20;;
44328;SDS011;30039;51.462;6.892;2023-04-28T10:09:59;10.95;;;5.38;;
44328;SDS011;30039;51.462;6.892;2023-04-28T10:12:44;13.07;;;6.28;;
44328;SDS011;30039;51.462;6.892;2023-04-28T10:15:31;10.27;;;5.30;;
44328;SDS011;30039;51.462;6.892;2023-04-28T10:18:18;12.40;;;5.28;;
44328;SDS011;30039;51.462;6.892;2023-04-28T10:21:04;7.70;;;5.43;;
44328;SDS011;30039;51.462;6.892;2023-04-28T10:29:42;8.43;;;5.05;;
44328;SDS011;30039;51.462;6.892;2023-04-28T10:32:27;10.50;;;4.85;;
44328;SDS011;30039;51.462;6.892;2023-04-28T10:38:19;10.25;;;5.30;;
44328;SDS011;30039;51.462;6.892;2023-04-28T10:41:07;9.57;;;4.90;;
44328;SDS011;30039;51.462;6.892;2023-04-28T10:44:56;8.77;;;5.00;;
44328;SDS011;30039;51.462;6.892;2023-04-28T10:47:22;11.65;;;5.25;;
44328;SDS011;30039;51.462;6.892;2023-04-28T10:50:08;10.43;;;5.53;;
44328;SDS011;30039;51.462;6.892;2023-04-28T10:52:55;10.60;;;5.75;;
44328;SDS011;30039;51.462;6.892;2023-04-28T10:55:41;11.00;;;6.15;;
44328;SDS011;30039;51.462;6.892;2023-04-28T11:04:05;9.57;;;6.70;;
44328;SDS011;30039;51.462;6.892;2023-04-28T11:07:10;11.50;;;6.05;;
44328;SDS011;30039;51.462;6.892;2023-04-28T11:09:59;10.27;;;6.35;;
44328;SDS011;30039;51.462;6.892;2023-04-28T11:16:01;10.18;;;7.03;;
44328;SDS011;30039;51.462;6.892;2023-04-28T11:21:36;11.50;;;7.63;;
44328;SDS011;30039;51.462;6.892;2023-04-28T11:24:24;13.88;;;7.03;;
44328;SDS011;30039;51.462;6.892;2023-04-28T11:27:10;11.60;;;6.82;;
44328;SDS011;30039;51.462;6.892;2023-04-28T11:29:56;10.75;;;6.90;;
44328;SDS011;30039;51.462;6.892;2023-04-28T11:32:43;12.68;;;7.28;;
44328;SDS011;30039;51.462;6.892;2023-04-28T11:35:39;11.18;;;7.15;;
44328;SDS011;30039;51.462;6.892;2023-04-28T11:38:25;13.13;;;7.90;;
44328;SDS011;30039;51.462;6.892;2023-04-28T11:41:10;11.55;;;8.38;;
44328;SDS011;30039;51.462;6.892;2023-04-28T11:43:56;13.43;;;8.50;;
44328;SDS011;30039;51.462;6.892;2023-04-28T11:46:48;15.65;;;9.57;;
44328;SDS011;30039;51.462;6.892;2023-04-28T11:49:42;12.52;;;9.73;;
44328;SDS011;30039;51.462;6.892;2023-04-28T11:52:28;14.68;;;9.98;;
44328;SDS011;30039;51.462;6.892;2023-04-28T11:55:17;13.18;;;10.45;;
44328;SDS011;30039;51.462;6.892;2023-04-28T11:58:21;15.38;;;10.18;;
44328;SDS011;30039;51.462;6.892;2023-04-28T12:01:12;15.63;;;10.27;;
44328;SDS011;30039;51.462;6.892;2023-04-28T12:04:00;13.20;;;10.95;;
44328;SDS011;30039;51.462;6.892;2023-04-28T12:06:45;14.75;;;11.57;;
44328;SDS011;30039;51.462;6.892;2023-04-28T12:09:32;20.58;;;13.38;;
44328;SDS011;30039;51.462;6.892;2023-04-28T12:12:28;15.13;;;11.20;;
44328;SDS011;30039;51.462;6.892;2023-04-28T12:15:14;14.02;;;11.05;;
44328;SDS011;30039;51.462;6.892;2023-04-28T12:18:08;13.45;;;10.68;;
44328;SDS011;30039;51.462;6.892;2023-04-28T12:20:53;14.52;;;11.20;;
44328;SDS011;30039;51.462;6.892;2023-04-28T12:23:39;14.98;;;11.27;;
44328;SDS011;30039;51.462;6.892;2023-04-28T12:26:27;13.55;;;11.15;;
44328;SDS011;30039;51.462;6.892;2023-04-28T12:32:18;13.07;;;10.63;;
44328;SDS011;30039;51.462;6.892;2023-04-28T12:35:05;14.88;;;10.32;;
44328;SDS011;30039;51.462;6.892;2023-04-28T12:37:51;14.10;;;10.13;;
44328;SDS011;30039;51.462;6.892;2023-04-28T12:40:37;12.18;;;9.05;;
44328;SDS011;30039;51.462;6.892;2023-04-28T12:43:23;15.27;;;9.02;;
44328;SDS011;30039;51.462;6.892;2023-04-28T12:46:09;10.40;;;8.45;;
44328;SDS011;30039;51.462;6.892;2023-04-28T12:48:55;11.95;;;8.75;;
44328;SDS011;30039;51.462;6.892;2023-04-28T12:51:41;10.02;;;8.05;;
44328;SDS011;30039;51.462;6.892;2023-04-28T12:54:27;10.63;;;6.97;;
44328;SDS011;30039;51.462;6.892;2023-04-28T12:57:13;9.23;;;6.70;;
44328;SDS011;30039;51.462;6.892;2023-04-28T12:59:58;9.30;;;5.80;;
44328;SDS011;30039;51.462;6.892;2023-04-28T13:02:44;7.00;;;6.13;;
44328;SDS011;30039;51.462;6.892;2023-04-28T13:05:30;7.10;;;5.95;;
44328;SDS011;30039;51.462;6.892;2023-04-28T13:08:16;7.55;;;5.82;;
44328;SDS011;30039;51.462;6.892;2023-04-28T13:11:01;6.47;;;5.85;;
44328;SDS011;30039;51.462;6.892;2023-04-28T13:13:49;6.30;;;5.28;;
44328;SDS011;30039;51.462;6.892;2023-04-28T13:16:35;6.90;;;5.25;;
44328;SDS011;30039;51.462;6.892;2023-04-28T13:19:21;6.32;;;4.70;;
44328;SDS011;30039;51.462;6.892;2023-04-28T13:22:07;7.07;;;5.50;;
44328;SDS011;30039;51.462;6.892;2023-04-28T13:24:53;6.78;;;5.45;;
44328;SDS011;30039;51.462;6.892;2023-04-28T13:27:40;5.90;;;5.00;;
44328;SDS011;30039;51.462;6.892;2023-04-28T13:30:26;6.57;;;4.90;;
44328;SDS011;30039;51.462;6.892;2023-04-28T13:33:12;7.43;;;5.50;;
44328;SDS011;30039;51.462;6.892;2023-04-28T13:35:57;8.10;;;5.05;;
44328;SDS011;30039;51.462;6.892;2023-04-28T13:38:43;8.45;;;5.60;;
44328;SDS011;30039;51.462;6.892;2023-04-28T13:41:33;7.53;;;5.38;;
44328;SDS011;30039;51.462;6.892;2023-04-28T13:44:19;6.68;;;4.70;;
44328;SDS011;30039;51.462;6.892;2023-04-28T13:47:05;5.57;;;4.32;;
44328;SDS011;30039;51.462;6.892;2023-04-28T13:49:53;7.35;;;5.25;;
44328;SDS011;30039;51.462;6.892;2023-04-28T13:52:40;6.50;;;5.05;;
44328;SDS011;30039;51.462;6.892;2023-04-28T13:55:26;11.57;;;5.10;;
44328;SDS011;30039;51.462;6.892;2023-04-28T13:58:15;7.07;;;4.70;;
44328;SDS011;30039;51.462;6.892;2023-04-28T14:01:01;8.05;;;5.38;;
44328;SDS011;30039;51.462;6.892;2023-04-28T14:03:48;6.03;;;4.82;;
44328;SDS011;30039;51.462;6.892;2023-04-28T14:06:33;6.47;;;4.75;;
44328;SDS011;30039;51.462;6.892;2023-04-28T14:09:19;7.45;;;4.85;;
44328;SDS011;30039;51.462;6.892;2023-04-28T14:12:05;7.43;;;4.90;;
44328;SDS011;30039;51.462;6.892;2023-04-28T14:14:51;5.78;;;4.47;;
44328;SDS011;30039;51.462;6.892;2023-04-28T14:17:36;6.15;;;4.60;;
44328;SDS011;30039;51.462;6.892;2023-04-28T14:20:22;7.60;;;4.53;;
44328;SDS011;30039;51.462;6.892;2023-04-28T14:23:09;6.57;;;4.82;;
44328;SDS011;30039;51.462;6.892;2023-04-28T14:25:55;6.53;;;4.75;;
44328;SDS011;30039;51.462;6.892;2023-04-28T14:28:42;5.18;;;4.00;;
44328;SDS011;30039;51.462;6.892;2023-04-28T14:31:28;5.97;;;4.68;;
44328;SDS011;30039;51.462;6.892;2023-04-28T14:34:13;7.00;;;4.72;;
44328;SDS011;30039;51.462;6.892;2023-04-28T14:36:59;6.40;;;4.63;;
44328;SDS011;30039;51.462;6.892;2023-04-28T14:39:46;6.05;;;4.50;;
44328;SDS011;30039;51.462;6.892;2023-04-28T14:42:32;5.07;;;4.38;;
44328;SDS011;30039;51.462;6.892;2023-04-28T14:45:21;7.78;;;4.20;;
44328;SDS011;30039;51.462;6.892;2023-04-28T14:48:07;4.43;;;3.45;;
44328;SDS011;30039;51.462;6.892;2023-04-28T14:50:54;5.18;;;3.47;;
44328;SDS011;30039;51.462;6.892;2023-04-28T14:53:40;4.75;;;3.83;;
44328;SDS011;30039;51.462;6.892;2023-04-28T14:56:26;6.28;;;4.55;;
44328;SDS011;30039;51.462;6.892;2023-04-28T14:59:12;6.35;;;3.90;;
44328;SDS011;30039;51.462;6.892;2023-04-28T15:01:57;4.63;;;3.55;;
44328;SDS011;30039;51.462;6.892;2023-04-28T15:04:43;5.28;;;3.70;;
44328;SDS011;30039;51.462;6.892;2023-04-28T15:07:30;7.03;;;3.72;;
44328;SDS011;30039;51.462;6.892;2023-04-28T15:10:17;3.90;;;2.95;;
44328;SDS011;30039;51.462;6.892;2023-04-28T15:13:02;4.35;;;2.95;;
44328;SDS011;30039;51.462;6.892;2023-04-28T15:15:48;3.90;;;2.85;;
44328;SDS011;30039;51.462;6.892;2023-04-28T15:18:35;4.45;;;2.92;;
44328;SDS011;30039;51.462;6.892;2023-04-28T15:21:21;4.82;;;2.95;;
44328;SDS011;30039;51.462;6.892;2023-04-28T15:24:08;4.32;;;3.50;;
44328;SDS011;30039;51.462;6.892;2023-04-28T15:26:53;4.80;;;4.13;;
44328;SDS011;30039;51.462;6.892;2023-04-28T15:29:39;5.40;;;4.30;;
44328;SDS011;30039;51.462;6.892;2023-04-28T15:32:25;7.18;;;4.20;;
44328;SDS011;30039;51.462;6.892;2023-04-28T15:35:10;5.60;;;4.25;;
44328;SDS011;30039;51.462;6.892;2023-04-28T15:37:56;6.93;;;4.88;;
44328;SDS011;30039;51.462;6.892;2023-04-28T15:40:42;5.07;;;4.43;;
44328;SDS011;30039;51.462;6.892;2023-04-28T15:43:28;5.97;;;4.15;;
44328;SDS011;30039;51.462;6.892;2023-04-28T15:46:15;7.55;;;4.63;;
44328;SDS011;30039;51.462;6.892;2023-04-28T15:49:02;6.90;;;4.70;;
44328;SDS011;30039;51.462;6.892;2023-04-28T15:51:48;6.82;;;4.35;;
44328;SDS011;30039;51.462;6.892;2023-04-28T15:54:34;6.90;;;5.05;;
44328;SDS011;30039;51.462;6.892;2023-04-28T15:57:19;5.38;;;3.72;;
44328;SDS011;30039;51.462;6.892;2023-04-28T16:00:06;4.90;;;3.70;;
44328;SDS011;30039;51.462;6.892;2023-04-28T16:02:53;4.60;;;3.22;;
44328;SDS011;30039;51.462;6.892;2023-04-28T16:05:39;4.75;;;3.60;;
44328;SDS011;30039;51.462;6.892;2023-04-28T16:08:24;4.15;;;3.08;;
44328;SDS011;30039;51.462;6.892;2023-04-28T16:11:10;3.60;;;3.00;;
44328;SDS011;30039;51.462;6.892;2023-04-28T16:14:02;4.13;;;3.22;;
44328;SDS011;30039;51.462;6.892;2023-04-28T16:16:48;3.47;;;2.90;;
44328;SDS011;30039;51.462;6.892;2023-04-28T16:19:34;5.43;;;2.90;;
44328;SDS011;30039;51.462;6.892;2023-04-28T16:22:21;5.28;;;3.33;;
44328;SDS011;30039;51.462;6.892;2023-04-28T16:25:07;4.18;;;3.15;;
44328;SDS011;30039;51.462;6.892;2023-04-28T16:27:53;4.38;;;3.17;;
44328;SDS011;30039;51.462;6.892;2023-04-28T16:30:56;4.85;;;3.03;;
44328;SDS011;30039;51.462;6.892;2023-04-28T16:33:44;5.07;;;3.40;;
44328;SDS011;30039;51.462;6.892;2023-04-28T16:36:30;5.45;;;3.08;;
44328;SDS011;30039;51.462;6.892;2023-04-28T16:42:28;6.07;;;2.88;;
44328;SDS011;30039;51.462;6.892;2023-04-28T16:45:18;5.40;;;3.08;;
44328;SDS011;30039;51.462;6.892;2023-04-28T16:48:10;4.82;;;3.22;;
44328;SDS011;30039;51.462;6.892;2023-04-28T16:51:00;6.15;;;3.58;;
44328;SDS011;30039;51.462;6.892;2023-04-28T16:53:56;5.40;;;3.78;;
44328;SDS011;30039;51.462;6.892;2023-04-28T16:56:49;5.70;;;3.58;;
44328;SDS011;30039;51.462;6.892;2023-04-28T16:59:39;6.13;;;3.83;;
44328;SDS011;30039;51.462;6.892;2023-04-28T17:02:25;7.22;;;3.45;;